createdAt,value
2023-10-06T00:00:34.978Z,101833.53
2023-10-06T00:03:07.452Z,101829.00
2023-10-06T00:05:34.614Z,101823.59
2023-10-06T00:08:02.455Z,101832.66
2023-10-06T00:10:33.371Z,101834.50
2023-10-06T00:13:00.345Z,101835.41
2023-10-06T00:15:39.548Z,101840.84
2023-10-06T00:18:17.689Z,101841.72
2023-10-06T00:20:51.247Z,101835.41
2023-10-06T00:23:23.442Z,101828.16
2023-10-06T00:25:56.860Z,101822.75
2023-10-06T00:28:28.207Z,101827.31
2023-10-06T00:31:25.154Z,101816.44
2023-10-06T00:33:51.905Z,101819.19
2023-10-06T00:36:18.694Z,101814.66
2023-10-06T00:38:54.889Z,101818.28
2023-10-06T00:41:22.415Z,101811.03
2023-10-06T00:43:52.151Z,101815.59
2023-10-06T00:46:22.236Z,101818.31
2023-10-06T00:48:57.541Z,101813.81
2023-10-06T00:51:27.407Z,101821.03
2023-10-06T00:53:58.665Z,101829.19
2023-10-06T00:56:26.564Z,101829.19
2023-10-06T00:58:54.172Z,101833.72
2023-10-06T01:01:22.421Z,101831.91
2023-10-06T01:04:02.486Z,101816.50
2023-10-06T01:06:37.599Z,101812.91
2023-10-06T01:09:15.052Z,101809.28
2023-10-06T01:11:46.520Z,101806.56
2023-10-06T01:14:27.359Z,101803.84
2023-10-06T01:17:09.491Z,101812.91
2023-10-06T01:19:48.425Z,101812.91
2023-10-06T01:22:42.679Z,101818.34
2023-10-06T01:25:14.531Z,101798.41
2023-10-06T01:27:44.952Z,101798.44
2023-10-06T01:30:19.362Z,101789.38
2023-10-06T01:32:51.575Z,101792.13
2023-10-06T01:35:21.975Z,101793.91
2023-10-06T01:37:49.463Z,101785.78
2023-10-06T01:40:47.059Z,101783.06
2023-10-06T01:43:16.314Z,101781.25
2023-10-06T04:03:04.772Z,101749.72
2023-10-06T04:05:38.335Z,101755.13
2023-10-06T04:08:10.235Z,101748.81
2023-10-06T04:10:38.158Z,101743.38
2023-10-06T04:13:09.172Z,101744.28
2023-10-06T04:15:39.351Z,101735.25
2023-10-06T04:18:11.489Z,101737.97
2023-10-06T04:20:40.456Z,101724.41
2023-10-06T04:23:08.217Z,101728.94
2023-10-06T04:26:05.294Z,101732.53
2023-10-06T04:28:32.007Z,101744.28
2023-10-06T04:31:06.856Z,101740.66
2023-10-06T04:33:34.457Z,101736.13
2023-10-06T04:36:09.735Z,101727.09
2023-10-06T04:38:41.138Z,101722.59
2023-10-06T04:41:11.547Z,101718.06
2023-10-06T04:43:46.943Z,101718.06
2023-10-06T04:46:15.023Z,101720.78
2023-10-06T04:48:42.724Z,101724.41
2023-10-06T04:51:10.680Z,101726.19
2023-10-06T04:53:37.541Z,101716.25
2023-10-06T04:56:08.218Z,101696.38
2023-10-06T04:58:41.378Z,101698.16
2023-10-06T05:01:09.326Z,101680.13
2023-10-06T05:03:48.097Z,101672.84
2023-10-06T05:06:22.655Z,101671.97
2023-10-06T05:08:50.785Z,101675.59
2023-10-06T05:11:20.056Z,101693.69
2023-10-06T05:13:54.873Z,101703.59
2023-10-06T05:16:26.219Z,101700.00
2023-10-06T05:18:53.079Z,101696.41
2023-10-06T05:21:21.510Z,101700.91
2023-10-06T05:23:48.398Z,101702.72
2023-10-06T05:26:17.264Z,101709.91
2023-10-06T05:28:45.176Z,101709.91
2023-10-06T05:31:13.306Z,101704.50
2023-10-06T05:33:41.823Z,101698.16
2023-10-06T05:36:11.715Z,101686.44
2023-10-06T05:38:38.777Z,101696.38
2023-10-06T05:41:09.569Z,101700.88
2023-10-06T05:43:36.191Z,101714.44
2023-10-06T05:46:04.116Z,101700.88
2023-10-06T05:48:31.580Z,101708.09
2023-10-06T05:51:06.249Z,101697.25
2023-10-06T05:53:40.587Z,101704.50
2023-10-06T05:56:11.704Z,101691.81
2023-10-06T05:58:39.232Z,101684.59
2023-10-06T06:01:14.625Z,101675.53
2023-10-06T06:03:51.229Z,101677.34
2023-10-06T06:06:24.805Z,101689.13
2023-10-06T06:08:53.493Z,101687.28
2023-10-06T06:11:21.600Z,101699.94
2023-10-06T06:13:58.900Z,101707.19
2023-10-06T06:16:31.727Z,101700.84
2023-10-06T06:18:59.265Z,101696.28
2023-10-06T06:21:26.515Z,101682.78
2023-10-06T06:23:57.210Z,101680.94
2023-10-06T06:26:27.344Z,101679.13
2023-10-06T06:28:54.751Z,101682.72
2023-10-06T06:31:22.174Z,101679.97
2023-10-06T06:33:50.197Z,101679.06
2023-10-06T06:36:17.097Z,101676.34
2023-10-06T06:38:43.729Z,101674.50
2023-10-06T06:41:10.636Z,101682.63
2023-10-06T06:43:37.228Z,101680.81
2023-10-06T06:46:03.937Z,101678.09
2023-10-06T06:48:30.556Z,101678.97
2023-10-06T06:50:57.187Z,101667.19
2023-10-06T06:53:24.980Z,101667.19
2023-10-06T06:55:52.424Z,101667.13
2023-10-06T06:58:19.353Z,101668.91
2023-10-06T07:00:49.289Z,101662.53
2023-10-06T07:03:16.576Z,101658.84
2023-10-06T07:05:44.399Z,101665.16
2023-10-06T07:08:12.697Z,101669.66
2023-10-06T07:10:44.668Z,101669.59
2023-10-06T07:13:11.863Z,101666.84
2023-10-06T07:15:39.027Z,101659.53
2023-10-06T07:18:06.984Z,101659.50
2023-10-06T07:20:33.935Z,101655.84
2023-10-06T07:23:01.899Z,101654.00
2023-10-06T07:25:30.023Z,101639.47
2023-10-06T07:27:59.197Z,101638.47
2023-10-06T07:30:29.774Z,101638.41
2023-10-06T07:32:56.625Z,101636.50
2023-10-06T07:35:32.367Z,101645.44
2023-10-06T07:38:03.956Z,101633.53
2023-10-06T07:40:31.068Z,101624.47
2023-10-06T07:42:59.798Z,101623.47
2023-10-06T07:45:31.615Z,101612.56
2023-10-06T07:47:58.601Z,101608.91
2023-10-06T07:50:27.744Z,101606.19
2023-10-06T07:53:05.415Z,101612.50
2023-10-06T07:55:33.140Z,101610.63
2023-10-06T07:58:01.299Z,101620.50
2023-10-06T08:00:30.891Z,101632.13
2023-10-06T08:02:58.754Z,101632.00
2023-10-06T08:05:28.703Z,101625.53
2023-10-06T08:08:00.009Z,101616.34
2023-10-06T08:10:29.023Z,101610.69
2023-10-06T08:12:57.461Z,101620.63
2023-10-06T08:15:26.772Z,101628.66
2023-10-06T08:17:57.072Z,101622.28
2023-10-06T08:20:26.688Z,101626.78
2023-10-06T08:22:54.290Z,101613.19
2023-10-06T08:25:22.176Z,101604.97
2023-10-06T08:27:51.934Z,101592.28
2023-10-06T08:30:22.913Z,101598.47
2023-10-06T08:32:53.409Z,101603.75
2023-10-06T08:35:22.646Z,101594.59
2023-10-06T08:37:52.957Z,101594.53
2023-10-06T08:40:24.597Z,101596.44
2023-10-06T08:42:53.437Z,101606.38
2023-10-06T08:45:23.171Z,101597.22
2023-10-06T08:48:03.371Z,101605.34
2023-10-06T08:50:34.461Z,101608.97
2023-10-06T08:53:03.073Z,101600.59
2023-10-06T08:55:30.248Z,101605.94
2023-10-06T08:58:04.051Z,101603.94
2023-10-06T09:00:35.506Z,101597.31
2023-10-06T09:03:10.571Z,101600.75
2023-10-06T09:05:44.880Z,101606.25
2023-10-06T09:08:13.217Z,101594.22
2023-10-06T09:10:44.341Z,101598.69
2023-10-06T09:13:13.756Z,101600.13
2023-10-06T09:15:43.761Z,101601.94
2023-10-06T09:18:22.745Z,101602.63
2023-10-06T09:20:50.433Z,101596.19
2023-10-06T09:23:35.436Z,101590.81
2023-10-06T09:26:03.554Z,101591.69
2023-10-06T09:28:32.440Z,101592.69
2023-10-06T09:31:01.849Z,101586.16
2023-10-06T09:33:42.890Z,101578.72
2023-10-06T09:36:32.115Z,101577.72
2023-10-06T09:39:04.770Z,101569.66
2023-10-06T09:41:35.066Z,101570.38
2023-10-06T09:44:11.312Z,101579.63
2023-10-06T09:46:43.362Z,101572.31
2023-10-06T09:49:17.752Z,101571.41
2023-10-06T09:51:45.066Z,101573.16
2023-10-06T09:54:13.729Z,101568.69
2023-10-06T09:56:42.701Z,101578.31
2023-10-06T09:59:14.915Z,101580.13
2023-10-06T10:01:43.862Z,101564.47
2023-10-06T10:04:12.778Z,101584.56
2023-10-06T10:06:46.088Z,101580.88
2023-10-06T10:09:18.658Z,101590.81
2023-10-06T10:12:16.637Z,101567.97
2023-10-06T10:15:22.808Z,101569.94
2023-10-06T10:18:16.063Z,101567.47
2023-10-06T10:20:42.982Z,101556.59
2023-10-06T10:23:15.666Z,101564.63
2023-10-06T10:25:45.134Z,101568.34
2023-10-06T10:28:18.591Z,101557.22
2023-10-06T10:30:59.106Z,101557.00
2023-10-06T10:33:29.299Z,101557.03
2023-10-06T10:36:29.792Z,101556.81
2023-10-06T10:39:19.754Z,101547.53
2023-10-06T10:41:47.351Z,101562.25
2023-10-06T10:44:25.565Z,101554.88
2023-10-06T10:46:54.471Z,101545.91
2023-10-06T10:49:24.273Z,101541.34
2023-10-06T10:51:55.940Z,101544.09
2023-10-06T10:54:24.357Z,101540.38
2023-10-06T10:57:02.636Z,101527.66
2023-10-06T11:00:08.621Z,101529.22
2023-10-06T11:02:36.820Z,101532.56
2023-10-06T11:05:06.492Z,101534.28
2023-10-06T11:07:33.369Z,101532.56
2023-10-06T11:10:00.111Z,101531.53
2023-10-06T11:12:29.152Z,101540.72
2023-10-06T11:15:05.217Z,101528.81
2023-10-06T11:17:34.059Z,101525.06
2023-10-06T11:20:23.705Z,101514.81
2023-10-06T11:23:02.664Z,101510.03
2023-10-06T11:25:33.875Z,101504.44
2023-10-06T11:28:04.700Z,101482.31
2023-10-06T11:30:34.992Z,101497.69
2023-10-06T11:33:07.806Z,101494.69
2023-10-06T11:35:36.138Z,101490.28
2023-10-06T11:38:07.998Z,101492.88
2023-10-06T11:40:36.515Z,101493.75
2023-10-06T11:43:14.647Z,101479.81
2023-10-06T11:45:46.375Z,101461.59
2023-10-06T11:48:34.851Z,101465.38
2023-10-06T11:51:07.592Z,101455.09
2023-10-06T11:53:42.142Z,101445.09
2023-10-06T11:56:11.987Z,101443.91
2023-10-06T11:58:41.451Z,101441.94
2023-10-06T12:01:38.148Z,101441.75
2023-10-06T12:04:31.392Z,101440.38
2023-10-06T12:07:01.873Z,101440.28
2023-10-06T12:09:34.764Z,101433.09
2023-10-06T12:12:03.172Z,101436.72
2023-10-06T12:14:31.208Z,101422.16
2023-10-06T12:16:58.808Z,101418.38
2023-10-06T12:19:27.068Z,101402.06
2023-10-06T12:21:53.706Z,101398.06
2023-10-06T12:24:23.410Z,101404.34
2023-10-06T12:26:50.716Z,101384.84
2023-10-06T12:29:18.586Z,101390.00
2023-10-06T12:31:47.263Z,101391.50
2023-10-06T12:34:16.870Z,101394.75
2023-10-06T12:36:50.466Z,101386.94
2023-10-06T12:39:21.659Z,101387.75
2023-10-06T12:41:48.596Z,101390.53
2023-10-06T12:44:17.312Z,101371.44
2023-10-06T12:46:44.285Z,101368.94
2023-10-06T12:49:19.577Z,101369.91
2023-10-06T12:51:47.394Z,101376.91
2023-10-06T12:54:15.795Z,101362.88
2023-10-06T12:56:45.920Z,101361.78
2023-10-06T12:59:13.517Z,101361.16
2023-10-06T13:01:40.298Z,101365.78
2023-10-06T13:04:07.442Z,101360.31
2023-10-06T13:06:36.894Z,101358.44
2023-10-06T13:09:04.768Z,101357.63
2023-10-06T13:11:32.127Z,101372.94
2023-10-06T13:13:58.929Z,101381.72
2023-10-06T13:16:26.118Z,101384.53
2023-10-06T13:18:54.099Z,101379.66
2023-10-06T13:21:22.205Z,101381.38
2023-10-06T13:23:49.115Z,101370.41
2023-10-06T13:26:27.430Z,101379.47
2023-10-06T13:29:04.111Z,101368.72
2023-10-06T13:31:32.565Z,101367.72
2023-10-06T13:34:03.814Z,101364.81
2023-10-06T13:36:32.092Z,101364.81
2023-10-06T13:38:58.996Z,101361.84
2023-10-06T13:41:30.225Z,101356.03
2023-10-06T13:43:57.471Z,101349.25
2023-10-06T13:46:26.614Z,101349.03
2023-10-06T13:48:55.380Z,101353.38
2023-10-06T13:51:22.515Z,101354.47
2023-10-06T13:53:49.592Z,101353.19
2023-10-06T13:56:16.747Z,101350.72
2023-10-06T13:58:44.616Z,101332.00
2023-10-06T14:01:13.702Z,101333.94
2023-10-06T14:03:40.890Z,101331.25
2023-10-06T14:06:08.819Z,101323.03
2023-10-06T14:08:35.922Z,101322.06
2023-10-06T14:11:02.732Z,101320.66
2023-10-06T14:13:33.196Z,101311.13
2023-10-06T14:16:01.269Z,101305.66
2023-10-06T14:18:33.934Z,101307.41
2023-10-06T14:21:07.391Z,101301.84
2023-10-06T14:23:45.130Z,101310.09
2023-10-06T14:26:13.899Z,101310.16
2023-10-06T14:28:45.541Z,101314.47
2023-10-06T14:31:32.412Z,101312.66
2023-10-06T14:34:19.312Z,101307.66
2023-10-06T14:36:48.476Z,101303.06
2023-10-06T14:39:34.993Z,101297.03
2023-10-06T14:42:02.071Z,101304.25
2023-10-06T14:44:47.782Z,101305.53
2023-10-06T14:47:14.983Z,101297.47
2023-10-06T14:49:44.217Z,101305.41
2023-10-06T14:52:12.324Z,101297.59
2023-10-06T14:54:40.006Z,101301.47
2023-10-06T14:57:07.035Z,101301.59
2023-10-06T14:59:37.033Z,101287.22
2023-10-06T15:02:08.581Z,101284.34
2023-10-06T15:04:40.217Z,101296.25
2023-10-06T15:07:07.402Z,101291.56
2023-10-06T15:09:36.258Z,101294.50
2023-10-06T15:12:04.784Z,101280.13
2023-10-06T15:14:31.875Z,101283.81
2023-10-06T15:17:01.065Z,101286.53
2023-10-06T15:19:28.708Z,101286.47
2023-10-06T15:21:58.367Z,101280.25
2023-10-06T15:24:26.639Z,101280.13
2023-10-06T15:26:54.916Z,101280.75
2023-10-06T15:29:25.790Z,101279.88
2023-10-06T15:31:52.726Z,101281.09
2023-10-06T15:34:19.522Z,101287.94
2023-10-06T15:36:46.569Z,101274.72
2023-10-06T15:39:20.092Z,101286.56
2023-10-06T15:41:50.723Z,101281.19
2023-10-06T15:44:19.174Z,101277.72
2023-10-06T15:46:47.597Z,101279.41
2023-10-06T15:49:19.536Z,101281.19
2023-10-06T15:51:48.559Z,101285.94
2023-10-06T15:54:19.319Z,101294.13
2023-10-06T15:56:48.178Z,101297.34
2023-10-06T15:59:17.626Z,101291.19
2023-10-06T16:01:46.412Z,101293.06
2023-10-06T16:04:15.974Z,101280.63
2023-10-06T16:06:44.582Z,101284.34
2023-10-06T16:09:17.058Z,101277.06
2023-10-06T16:11:45.810Z,101278.88
2023-10-06T16:14:16.729Z,101272.53
2023-10-06T16:16:44.518Z,101276.22
2023-10-06T16:19:14.265Z,101277.19
2023-10-06T16:21:45.291Z,101273.69
2023-10-06T16:24:14.641Z,101264.38
2023-10-06T16:26:43.504Z,101271.31
2023-10-06T16:29:11.497Z,101258.81
2023-10-06T16:31:39.567Z,101246.72
2023-10-06T16:34:07.684Z,101256.41
2023-10-06T16:36:36.573Z,101252.09
2023-10-06T16:39:16.953Z,101250.41
2023-10-06T16:41:44.423Z,101248.56
2023-10-06T16:44:11.592Z,101253.16
2023-10-06T16:46:40.604Z,101242.28
2023-10-06T16:49:09.487Z,101252.09
2023-10-06T16:51:40.713Z,101256.63
2023-10-06T16:54:11.642Z,101251.19
2023-10-06T16:56:39.072Z,101242.22
2023-10-06T16:59:06.884Z,101239.47
2023-10-06T17:01:35.410Z,101247.38
2023-10-06T17:04:05.591Z,101250.19
2023-10-06T17:06:33.413Z,101249.44
2023-10-06T17:09:00.780Z,101240.25
2023-10-06T17:11:29.241Z,101237.88
2023-10-06T17:13:56.346Z,101247.47
2023-10-06T17:16:23.991Z,101248.31
2023-10-06T17:18:54.038Z,101250.19
2023-10-06T17:21:21.265Z,101254.63
2023-10-06T17:23:48.255Z,101255.59
2023-10-06T17:26:16.064Z,101251.69
2023-10-06T17:28:44.700Z,101244.66
2023-10-06T17:31:16.571Z,101245.53
2023-10-06T17:33:45.074Z,101246.41
2023-10-06T17:36:12.012Z,101243.50
2023-10-06T17:38:39.116Z,101239.25
2023-10-06T17:41:12.197Z,101241.16
2023-10-06T17:43:39.422Z,101242.97
2023-10-06T17:46:06.461Z,101250.31
2023-10-06T17:48:34.113Z,101252.09
2023-10-06T17:51:01.021Z,101256.78
2023-10-06T17:53:28.142Z,101242.16
2023-10-06T17:55:57.611Z,101237.50
2023-10-06T17:58:25.370Z,101239.38
2023-10-06T18:00:52.860Z,101241.13
2023-10-06T18:03:19.872Z,101232.84
2023-10-06T18:05:53.512Z,101232.03
2023-10-06T18:08:24.240Z,101231.22
2023-10-06T18:10:51.234Z,101224.84
2023-10-06T18:13:18.959Z,101213.91
2023-10-06T18:15:46.754Z,101218.28
2023-10-06T18:18:14.048Z,101217.38
2023-10-06T18:20:43.973Z,101197.28
2023-10-06T18:23:12.508Z,101193.81
2023-10-06T18:25:40.338Z,101197.41
2023-10-06T18:28:08.810Z,101204.75
2023-10-06T18:30:36.237Z,101217.50
2023-10-06T18:33:03.706Z,101215.69
2023-10-06T18:35:35.027Z,101209.59
2023-10-06T18:38:02.479Z,101201.69
2023-10-06T18:40:29.764Z,101213.47
2023-10-06T18:42:58.164Z,101207.16
2023-10-06T18:45:25.460Z,101208.84
2023-10-06T18:47:53.098Z,101212.50
2023-10-06T18:50:20.942Z,101213.53
2023-10-06T18:52:49.716Z,101215.25
2023-10-06T18:55:23.845Z,101209.81
2023-10-06T18:57:52.527Z,101211.78
2023-10-06T19:00:23.768Z,101214.41
2023-10-06T19:02:51.869Z,101218.31
2023-10-06T19:05:19.968Z,101225.75
2023-10-06T19:07:47.114Z,101218.50
2023-10-06T19:10:15.925Z,101221.28
2023-10-06T19:12:46.933Z,101212.84
2023-10-06T19:15:13.906Z,101213.84
2023-10-06T19:17:40.913Z,101212.16
2023-10-06T19:20:09.730Z,101218.56
2023-10-06T19:22:39.536Z,101206.69
2023-10-06T19:25:12.041Z,101214.97
2023-10-06T19:27:41.892Z,101209.59
2023-10-06T19:30:12.198Z,101217.06
2023-10-06T19:32:40.835Z,101233.41
2023-10-06T19:35:10.607Z,101228.00
2023-10-06T19:37:41.924Z,101229.84
2023-10-06T19:40:10.019Z,101228.78
2023-10-06T19:42:38.554Z,101229.56
2023-10-06T19:45:07.982Z,101226.84
2023-10-06T19:47:36.719Z,101231.38
2023-10-06T19:50:12.529Z,101217.63
2023-10-06T19:52:40.655Z,101224.03
2023-10-06T19:55:08.965Z,101217.63
2023-10-06T19:57:37.042Z,101229.44
2023-10-06T20:00:26.542Z,101229.44
2023-10-06T20:02:57.058Z,101222.09
2023-10-06T20:05:23.956Z,101220.19
2023-10-06T20:07:51.688Z,101220.34
2023-10-06T20:10:23.148Z,101218.38
2023-10-06T20:12:52.684Z,101220.19
2023-10-06T20:15:20.184Z,101213.03
2023-10-06T20:17:47.848Z,101208.50
2023-10-06T20:20:21.829Z,101205.75
2023-10-06T20:22:49.859Z,101204.88
2023-10-06T20:25:17.590Z,101216.69
2023-10-06T20:27:50.408Z,101207.56
2023-10-06T20:30:18.431Z,101206.47
2023-10-06T20:32:48.476Z,101216.50
2023-10-06T20:35:15.096Z,101212.72
2023-10-06T20:37:42.738Z,101209.34
2023-10-06T20:40:11.517Z,101202.25
2023-10-06T20:42:38.983Z,101204.59
2023-10-06T20:45:07.100Z,101209.88
2023-10-06T20:47:34.300Z,101210.09
2023-10-06T20:50:08.463Z,101200.09
2023-10-06T20:52:35.998Z,101203.72
2023-10-06T20:55:03.898Z,101207.56
2023-10-06T20:57:30.471Z,101208.31
2023-10-06T20:59:58.608Z,101203.66
2023-10-06T21:02:25.885Z,101218.31
2023-10-06T21:04:53.539Z,101211.91
2023-10-06T21:07:21.967Z,101211.03
2023-10-06T21:09:48.616Z,101200.28
2023-10-06T21:12:15.204Z,101205.66
2023-10-06T21:14:41.789Z,101202.91
2023-10-06T21:17:08.471Z,101191.16
2023-10-06T21:19:36.030Z,101205.66
2023-10-06T21:22:04.630Z,101200.41
2023-10-06T21:24:31.404Z,101205.84
2023-10-06T21:27:00.335Z,101205.84
2023-10-06T21:29:29.903Z,101208.69
2023-10-06T21:31:56.902Z,101220.63
2023-10-06T21:34:25.155Z,101221.31
2023-10-06T21:36:52.410Z,101227.69
2023-10-06T21:39:21.798Z,101206.69
2023-10-06T21:41:49.005Z,101203.97
2023-10-06T21:44:17.689Z,101200.53
2023-10-06T21:46:44.451Z,101187.75
2023-10-06T21:49:14.370Z,101193.16
2023-10-06T21:51:42.360Z,101196.97
2023-10-06T21:54:09.279Z,101193.28
2023-10-06T21:56:37.914Z,101187.81
2023-10-06T21:59:04.592Z,101182.47
2023-10-06T22:01:31.350Z,101185.94
2023-10-06T22:03:58.185Z,101182.56
2023-10-06T22:06:25.236Z,101179.84
2023-10-06T22:08:51.900Z,101181.63
2023-10-06T22:11:18.681Z,101176.44
2023-10-06T22:13:47.184Z,101170.88
2023-10-06T22:42:34.637Z,101186.75
2023-10-06T22:45:01.387Z,101178.59
2023-10-06T22:47:29.001Z,101191.41
2023-10-06T22:49:55.645Z,101186.03
2023-10-06T22:52:22.831Z,101183.19
2023-10-06T22:54:50.304Z,101183.31
2023-10-06T22:57:16.978Z,101172.59
2023-10-06T22:59:43.703Z,101171.78
2023-10-06T23:02:10.890Z,101170.00
2023-10-06T23:04:38.240Z,101169.06
2023-10-06T23:07:05.892Z,101170.28
2023-10-06T23:09:32.709Z,101163.91
2023-10-06T23:12:01.279Z,101155.03
2023-10-06T23:14:29.059Z,101155.31
2023-10-06T23:17:02.477Z,101156.22
2023-10-06T23:19:34.965Z,101163.28
2023-10-06T23:22:03.393Z,101154.22
2023-10-06T23:24:48.625Z,101155.25
2023-10-06T23:27:16.832Z,101138.06
2023-10-06T23:29:44.603Z,101146.56
2023-10-06T23:32:11.405Z,101147.47
2023-10-06T23:34:39.147Z,101154.75
2023-10-06T23:37:06.957Z,101148.47
2023-10-06T23:39:38.399Z,101149.53
2023-10-06T23:42:10.631Z,101145.78
2023-10-06T23:44:39.604Z,101142.28
2023-10-06T23:47:13.678Z,101156.59
2023-10-06T23:49:42.202Z,101155.88
2023-10-06T23:52:13.649Z,101161.31
2023-10-06T23:54:43.782Z,101153.28
2023-10-06T23:57:16.287Z,101147.06
2023-10-06T23:59:49.301Z,101155.22
